createdAt,value
2018-04-19T00:03:16.820Z,1.80
2018-04-19T00:05:44.706Z,1.77
2018-04-19T00:08:12.538Z,1.70
2018-04-19T00:10:40.484Z,1.70
2018-04-19T00:13:08.265Z,1.63
2018-04-19T00:15:36.163Z,1.70
2018-04-19T00:18:03.987Z,1.63
2018-04-19T00:20:31.806Z,1.63
2018-04-19T00:22:59.640Z,1.70
2018-04-19T00:25:27.594Z,1.50
2018-04-19T00:27:55.356Z,1.67
2018-04-19T00:30:23.269Z,1.50
2018-04-19T00:32:51.155Z,1.73
2018-04-19T00:35:18.982Z,1.87
2018-04-19T00:37:46.850Z,1.43
2018-04-19T00:40:14.766Z,1.70
2018-04-19T00:42:42.682Z,1.60
2018-04-19T00:45:10.464Z,1.80
2018-04-19T00:47:39.063Z,1.50
2018-04-19T00:50:06.880Z,1.70
2018-04-19T00:52:34.686Z,1.60
2018-04-19T00:55:02.557Z,1.37
2018-04-19T00:57:30.384Z,1.40
2018-04-19T00:59:58.358Z,1.57
2018-04-19T01:02:26.166Z,1.67
2018-04-19T01:04:53.975Z,1.67
2018-04-19T01:07:21.764Z,1.60
2018-04-19T01:09:50.541Z,1.50
2018-04-19T01:12:19.252Z,1.70
2018-04-19T01:14:47.079Z,1.50
2018-04-19T01:17:14.988Z,1.63
2018-04-19T01:19:42.857Z,1.70
2018-04-19T01:22:10.741Z,1.50
2018-04-19T01:24:38.780Z,1.60
2018-04-19T01:27:06.685Z,1.43
2018-04-19T01:29:34.579Z,1.93
2018-04-19T01:32:03.271Z,1.60
2018-04-19T01:34:31.890Z,1.60
2018-04-19T01:36:59.764Z,1.67
2018-04-19T01:39:27.644Z,1.53
2018-04-19T01:41:55.610Z,1.70
2018-04-19T01:44:23.542Z,1.73
2018-04-19T01:46:51.464Z,1.40
2018-04-19T01:49:19.403Z,1.50
2018-04-19T01:51:47.360Z,1.77
2018-04-19T01:54:15.182Z,1.37
2018-04-19T01:56:43.822Z,1.53
2018-04-19T01:59:11.585Z,1.70
2018-04-19T02:01:39.558Z,1.47
2018-04-19T02:04:07.415Z,1.47
2018-04-19T02:06:35.359Z,1.50
2018-04-19T02:09:03.304Z,1.30
2018-04-19T02:11:31.934Z,1.40
2018-04-19T02:13:59.802Z,1.47
2018-04-19T02:16:27.660Z,1.30
2018-04-19T02:18:55.677Z,1.33
2018-04-19T02:21:24.246Z,1.80
2018-04-19T02:23:52.162Z,1.80
2018-04-19T02:26:20.295Z,1.50
2018-04-19T02:28:48.928Z,1.50
2018-04-19T02:31:16.760Z,1.40
2018-04-19T02:33:44.580Z,1.47
2018-04-19T02:36:12.528Z,1.30
2018-04-19T02:38:40.429Z,1.63
2018-04-19T02:41:08.334Z,1.33
2018-04-19T02:43:36.188Z,1.80
2018-04-19T02:46:04.821Z,1.40
2018-04-19T02:48:32.817Z,1.33
2018-04-19T02:51:01.456Z,1.40
2018-04-19T02:53:29.362Z,1.53
2018-04-19T02:55:57.366Z,1.70
2018-04-19T02:58:25.248Z,1.60
2018-04-19T03:00:53.125Z,1.47
2018-04-19T03:03:21.020Z,1.47
2018-04-19T03:05:48.954Z,1.60
2018-04-19T03:08:16.916Z,1.40
2018-04-19T03:10:44.935Z,1.37
2018-04-19T03:13:12.785Z,1.30
2018-04-19T03:15:40.786Z,1.47
2018-04-19T03:18:09.383Z,1.50
2018-04-19T03:20:37.263Z,1.80
2018-04-19T03:23:05.143Z,1.50
2018-04-19T03:25:32.978Z,1.40
2018-04-19T03:28:00.863Z,1.60
2018-04-19T03:30:28.690Z,1.40
2018-04-19T03:32:57.233Z,1.60
2018-04-19T03:35:25.224Z,1.37
2018-04-19T03:37:53.123Z,1.50
2018-04-19T03:40:20.973Z,1.60
2018-04-19T03:42:48.929Z,1.70
2018-04-19T03:45:17.588Z,1.60
2018-04-19T03:47:45.451Z,1.60
2018-04-19T03:50:13.222Z,1.50
2018-04-19T03:52:41.193Z,1.60
2018-04-19T03:55:08.958Z,1.40
2018-04-19T03:57:36.959Z,1.57
2018-04-19T04:00:04.781Z,1.53
2018-04-19T04:02:32.597Z,1.57
2018-04-19T04:05:00.588Z,1.67
2018-04-19T04:07:28.492Z,1.50
2018-04-19T04:09:56.329Z,1.60
2018-04-19T04:12:24.142Z,1.50
2018-04-19T04:14:52.790Z,1.70
2018-04-19T04:17:20.673Z,1.40
2018-04-19T04:19:48.435Z,1.47
2018-04-19T04:22:16.282Z,1.63
2018-04-19T04:24:44.219Z,1.40
2018-04-19T04:27:12.056Z,1.50
2018-04-19T04:29:39.897Z,1.53
2018-04-19T04:32:07.753Z,1.50
2018-04-19T04:34:35.613Z,1.57
2018-04-19T04:37:03.480Z,1.40
2018-04-19T04:39:31.302Z,1.40
2018-04-19T04:41:59.267Z,1.33
2018-04-19T04:44:27.052Z,1.40
2018-04-19T04:46:54.863Z,1.40
2018-04-19T04:49:23.378Z,1.40
2018-04-19T04:51:51.179Z,1.47
2018-04-19T04:54:20.016Z,1.60
2018-04-19T04:56:47.787Z,1.73
2018-04-19T04:59:15.549Z,1.70
2018-04-19T05:01:43.422Z,1.30
2018-04-19T05:04:11.256Z,1.40
2018-04-19T05:06:39.151Z,1.50
2018-04-19T05:09:06.963Z,1.40
2018-04-19T05:11:35.654Z,1.50
2018-04-19T05:14:04.159Z,1.50
2018-04-19T05:16:32.104Z,1.50
2018-04-19T05:19:00.633Z,1.63
2018-04-19T05:21:28.450Z,1.40
2018-04-19T05:23:56.319Z,1.40
2018-04-19T05:26:24.982Z,1.80
2018-04-19T05:28:52.838Z,1.50
2018-04-19T05:31:20.642Z,1.50
2018-04-19T05:33:48.428Z,1.50
2018-04-19T05:36:16.224Z,1.30
2018-04-19T05:38:44.048Z,1.80
2018-04-19T05:41:11.984Z,1.43
2018-04-19T05:43:40.497Z,1.40
2018-04-19T05:46:08.507Z,1.40
2018-04-19T05:48:36.395Z,1.47
2018-04-19T05:51:05.049Z,1.30
2018-04-19T05:53:32.856Z,1.27
2018-04-19T05:56:00.655Z,1.60
2018-04-19T05:58:28.465Z,1.60
2018-04-19T06:00:57.039Z,4.57
2018-04-19T06:03:24.891Z,5.80
2018-04-19T06:05:52.839Z,7.20
2018-04-19T06:08:20.711Z,7.23
2018-04-19T06:10:48.817Z,7.17
2018-04-19T06:13:17.514Z,7.80
2018-04-19T06:15:46.427Z,8.03
2018-04-19T06:18:14.409Z,8.07
2018-04-19T06:20:42.531Z,8.00
2018-04-19T06:23:11.130Z,9.10
2018-04-19T06:25:38.989Z,8.83
2018-04-19T06:28:07.584Z,8.90
2018-04-19T06:30:35.401Z,8.93
2018-04-19T06:33:03.258Z,8.10
2018-04-19T06:35:31.133Z,8.97
2018-04-19T06:37:58.811Z,8.37
2018-04-19T06:40:27.449Z,7.80
2018-04-19T06:42:55.240Z,7.60
2018-04-19T06:45:23.105Z,5.70
2018-04-19T06:47:50.865Z,6.60
2018-04-19T06:50:18.835Z,5.50
2018-04-19T06:52:46.671Z,5.83
2018-04-19T06:55:14.710Z,5.67
2018-04-19T06:57:43.537Z,5.80
2018-04-19T07:00:11.336Z,5.43
2018-04-19T07:02:40.160Z,5.20
2018-04-19T07:05:07.882Z,5.83
2018-04-19T07:07:36.478Z,5.87
2018-04-19T07:10:04.289Z,5.83
2018-04-19T07:12:32.134Z,6.10
2018-04-19T07:15:00.128Z,6.50
2018-04-19T07:17:27.977Z,6.40
2018-04-19T07:19:55.794Z,6.03
2018-04-19T07:22:24.481Z,5.60
2018-04-19T07:24:52.428Z,5.83
2018-04-19T07:27:20.288Z,6.40
2018-04-19T07:29:48.298Z,6.57
2018-04-19T07:32:16.062Z,6.73
2018-04-19T07:34:43.852Z,7.10
2018-04-19T07:37:11.734Z,7.83
2018-04-19T07:39:39.608Z,6.50
2018-04-19T07:42:07.435Z,6.43
2018-04-19T07:44:35.255Z,7.13
2018-04-19T07:47:03.866Z,7.30
2018-04-19T07:49:31.596Z,7.27
2018-04-19T07:51:59.421Z,7.23
2018-04-19T07:54:27.269Z,7.47
2018-04-19T07:56:55.104Z,6.77
2018-04-19T07:59:23.666Z,7.80
2018-04-19T08:01:51.446Z,7.53
2018-04-19T08:04:19.290Z,7.17
2018-04-19T08:06:47.113Z,7.77
2018-04-19T08:09:14.885Z,8.33
2018-04-19T08:11:42.745Z,7.40
2018-04-19T08:14:10.705Z,7.43
2018-04-19T08:16:38.514Z,8.47
2018-04-19T08:19:06.328Z,8.03
2018-04-19T08:21:34.204Z,7.90
2018-04-19T08:24:01.947Z,8.67
2018-04-19T08:26:29.735Z,7.73
2018-04-19T08:28:57.493Z,9.17
2018-04-19T08:31:25.267Z,9.47
2018-04-19T08:33:53.142Z,8.13
2018-04-19T08:36:20.945Z,7.27
2018-04-19T08:38:48.722Z,9.77
2018-04-19T08:41:16.652Z,9.40
2018-04-19T08:43:45.256Z,9.23
2018-04-19T08:46:13.056Z,9.17
2018-04-19T08:48:40.911Z,9.57
2018-04-19T08:51:08.787Z,9.17
2018-04-19T08:53:36.579Z,10.43
2018-04-19T08:56:04.455Z,10.57
2018-04-19T08:58:32.341Z,10.43
2018-04-19T09:01:00.876Z,10.93
2018-04-19T09:03:28.706Z,11.20
2018-04-19T09:05:56.461Z,10.10
2018-04-19T09:08:24.258Z,11.03
2018-04-19T09:10:52.137Z,10.07
2018-04-19T09:13:19.967Z,10.97
2018-04-19T09:15:47.813Z,10.80
2018-04-19T09:18:15.796Z,10.83
2018-04-19T09:20:43.768Z,10.83
2018-04-19T09:23:11.574Z,11.07
2018-04-19T09:25:39.437Z,11.70
2018-04-19T09:28:07.303Z,11.90
2018-04-19T09:30:35.199Z,12.80
2018-04-19T09:33:03.711Z,14.40
2018-04-19T09:35:31.673Z,13.07
2018-04-19T09:37:59.511Z,14.20
2018-04-19T09:40:28.067Z,13.30
2018-04-19T09:42:56.638Z,14.57
2018-04-19T09:45:24.509Z,13.50
2018-04-19T09:47:52.334Z,14.87
2018-04-19T09:50:20.134Z,14.93
2018-04-19T09:52:47.946Z,14.77
2018-04-19T09:55:15.737Z,14.53
2018-04-19T09:57:43.673Z,15.50
2018-04-19T10:00:11.476Z,17.13
2018-04-19T10:02:39.331Z,15.70
2018-04-19T10:05:07.151Z,16.07
2018-04-19T10:07:35.068Z,16.87
2018-04-19T10:10:02.901Z,17.73
2018-04-19T10:12:30.875Z,16.30
2018-04-19T10:14:58.799Z,16.23
2018-04-19T10:17:26.673Z,16.20
2018-04-19T10:19:55.478Z,18.27
2018-04-19T10:22:23.254Z,17.77
2018-04-19T10:24:50.973Z,17.33
2018-04-19T10:27:18.876Z,16.73
2018-04-19T10:29:46.629Z,17.23
2018-04-19T10:32:14.525Z,17.03
2018-04-19T10:34:42.483Z,15.50
2018-04-19T10:37:10.259Z,16.80
2018-04-19T10:39:38.099Z,15.63
2018-04-19T10:42:06.035Z,17.60
2018-04-19T10:44:34.690Z,16.83
2018-04-19T10:47:02.576Z,17.00
2018-04-19T10:49:30.469Z,16.93
2018-04-19T10:51:58.244Z,17.03
2018-04-19T10:57:00.004Z,15.20
2018-04-19T10:59:27.899Z,15.63
2018-04-19T11:01:55.704Z,15.83
2018-04-19T11:04:23.472Z,14.77
2018-04-19T11:06:52.072Z,15.13
2018-04-19T11:09:20.076Z,15.20
2018-04-19T11:11:47.835Z,15.00
2018-04-19T11:14:15.565Z,16.03
2018-04-19T11:16:47.719Z,15.80
2018-04-19T11:19:16.243Z,15.40
2018-04-19T11:21:44.090Z,14.50
2018-04-19T11:24:11.920Z,13.97
2018-04-19T11:26:40.580Z,13.20
2018-04-19T11:29:08.410Z,13.40
2018-04-19T11:31:36.242Z,14.10
2018-04-19T11:34:04.831Z,14.13
2018-04-19T11:36:32.803Z,13.70
2018-04-19T11:39:00.545Z,13.13
2018-04-19T11:41:29.103Z,13.67
2018-04-19T11:43:57.015Z,14.20
2018-04-19T11:46:24.917Z,15.03
2018-04-19T11:48:52.733Z,12.60
2018-04-19T11:51:21.403Z,12.40
2018-04-19T11:53:49.997Z,11.70
2018-04-19T11:56:18.586Z,11.47
2018-04-19T11:58:46.568Z,10.77
2018-04-19T12:01:16.088Z,10.57
2018-04-19T12:03:43.875Z,9.87
2018-04-19T12:06:11.732Z,12.07
2018-04-19T12:08:39.529Z,11.30
2018-04-19T12:11:07.219Z,10.33
2018-04-19T12:13:35.121Z,9.63
2018-04-19T12:16:02.918Z,9.83
2018-04-19T12:18:30.831Z,10.77
2018-04-19T12:20:58.656Z,10.07
2018-04-19T12:23:27.374Z,9.07
2018-04-19T12:25:55.239Z,9.43
2018-04-19T12:28:23.011Z,8.87
2018-04-19T12:30:50.845Z,9.20
2018-04-19T12:33:18.709Z,10.40
2018-04-19T12:35:46.469Z,9.53
2018-04-19T12:38:15.101Z,9.80
2018-04-19T12:40:43.051Z,10.30
2018-04-19T12:43:10.888Z,10.37
2018-04-19T12:45:38.731Z,10.23
2018-04-19T12:48:06.492Z,9.87
2018-04-19T12:50:34.358Z,10.07
2018-04-19T12:53:02.168Z,9.83
2018-04-19T12:55:30.043Z,10.13
2018-04-19T12:57:57.823Z,11.20
2018-04-19T13:00:25.677Z,10.80
2018-04-19T13:02:53.532Z,10.60
2018-04-19T13:05:21.425Z,10.23
2018-04-19T13:07:49.300Z,10.90
2018-04-19T13:10:17.213Z,10.83
2018-04-19T13:12:45.066Z,9.77
2018-04-19T13:15:12.982Z,10.60
2018-04-19T13:17:40.853Z,9.90
2018-04-19T13:20:08.705Z,10.03
2018-04-19T13:22:36.582Z,9.93
2018-04-19T13:25:04.375Z,10.17
2018-04-19T13:27:33.020Z,9.77
2018-04-19T13:30:00.842Z,9.63
2018-04-19T13:32:28.660Z,10.33
2018-04-19T13:34:56.454Z,9.20
2018-04-19T13:37:25.083Z,9.50
2018-04-19T13:39:53.123Z,9.80
2018-04-19T13:42:21.081Z,8.93
2018-04-19T13:44:48.972Z,9.77
2018-04-19T13:47:16.803Z,9.70
2018-04-19T13:49:45.449Z,8.23
2018-04-19T13:52:13.361Z,8.47
2018-04-19T13:54:41.335Z,8.70
2018-04-19T13:57:09.244Z,8.30
2018-04-19T13:59:37.311Z,9.10
2018-04-19T14:02:05.165Z,8.67
2018-04-19T14:04:32.972Z,8.63
2018-04-19T14:07:01.713Z,8.17
2018-04-19T14:09:29.585Z,8.53
2018-04-19T14:11:57.438Z,7.27
2018-04-19T14:14:25.279Z,8.20
2018-04-19T14:16:53.153Z,8.10
2018-04-19T14:19:20.984Z,7.60
2018-04-19T14:21:48.859Z,7.77
2018-04-19T14:24:16.665Z,6.90
2018-04-19T14:26:44.509Z,7.53
2018-04-19T14:29:12.362Z,7.70
2018-04-19T14:31:40.173Z,7.40
2018-04-19T14:34:08.037Z,7.40
2018-04-19T14:36:35.880Z,6.80
2018-04-19T14:39:03.739Z,7.10
2018-04-19T14:41:31.584Z,7.47
2018-04-19T14:43:59.526Z,7.40
2018-04-19T14:46:28.125Z,6.90
2018-04-19T14:48:55.975Z,7.17
2018-04-19T14:51:24.621Z,7.03
2018-04-19T14:53:52.523Z,6.73
2018-04-19T14:56:21.085Z,6.40
2018-04-19T14:58:49.252Z,6.07
2018-04-19T15:01:17.147Z,6.47
2018-04-19T15:03:45.645Z,6.37
2018-04-19T15:06:13.555Z,6.17
2018-04-19T15:08:41.440Z,6.10
2018-04-19T15:11:09.229Z,6.07
2018-04-19T15:13:37.841Z,5.97
2018-04-19T15:16:05.743Z,6.50
2018-04-19T15:18:33.645Z,6.27
2018-04-19T15:21:02.238Z,6.10
2018-04-19T15:23:30.025Z,5.40
2018-04-19T15:25:57.872Z,5.60
2018-04-19T15:28:25.671Z,5.67
2018-04-19T15:30:53.537Z,5.80
2018-04-19T15:33:21.362Z,5.83
2018-04-19T15:35:49.267Z,5.90
2018-04-19T15:38:17.182Z,5.63
2018-04-19T15:40:46.046Z,5.80
2018-04-19T15:43:13.948Z,5.90
2018-04-19T15:45:41.792Z,4.80
2018-04-19T15:48:10.389Z,5.27
2018-04-19T15:50:38.248Z,4.77
2018-04-19T15:53:06.019Z,4.93
2018-04-19T15:55:33.825Z,5.00
2018-04-19T15:58:01.661Z,4.77
2018-04-19T16:00:29.541Z,4.83
2018-04-19T16:02:57.320Z,4.97
2018-04-19T16:05:26.202Z,4.60
2018-04-19T16:07:54.102Z,4.60
2018-04-19T16:10:22.682Z,4.70
2018-04-19T16:12:51.348Z,4.57
2018-04-19T16:15:19.117Z,4.43
2018-04-19T16:17:47.870Z,4.20
2018-04-19T16:20:15.821Z,4.60
2018-04-19T16:22:43.680Z,4.00
2018-04-19T16:25:11.531Z,4.10
2018-04-19T16:27:39.376Z,4.00
2018-04-19T16:30:07.998Z,4.30
2018-04-19T16:32:35.884Z,4.27
2018-04-19T16:35:03.715Z,3.80
2018-04-19T16:37:31.567Z,3.87
2018-04-19T16:40:00.057Z,4.60
2018-04-19T16:42:27.995Z,4.00
2018-04-19T16:44:55.974Z,3.97
2018-04-19T16:47:24.561Z,4.00
2018-04-19T16:49:52.451Z,3.80
2018-04-19T16:52:20.207Z,3.70
2018-04-19T16:54:48.006Z,3.80
2018-04-19T16:57:15.815Z,3.57
2018-04-19T16:59:44.339Z,4.03
2018-04-19T17:02:12.138Z,3.90
2018-04-19T17:04:39.971Z,4.20
2018-04-19T17:07:07.909Z,3.90
2018-04-19T17:09:35.715Z,3.60
2018-04-19T17:12:03.594Z,3.87
2018-04-19T17:14:31.480Z,3.90
2018-04-19T17:16:59.271Z,4.23
2018-04-19T17:19:27.090Z,4.17
2018-04-19T17:21:55.132Z,3.50
2018-04-19T17:24:22.980Z,3.93
2018-04-19T17:26:50.825Z,3.30
2018-04-19T17:29:18.674Z,3.50
2018-04-19T17:31:47.401Z,3.60
2018-04-19T17:34:15.532Z,3.33
2018-04-19T17:36:44.094Z,3.80
2018-04-19T17:39:11.907Z,3.23
2018-04-19T17:41:39.820Z,3.70
2018-04-19T17:44:07.575Z,3.37
2018-04-19T17:46:35.413Z,3.60
2018-04-19T17:49:03.289Z,3.60
2018-04-19T17:51:31.151Z,3.07
2018-04-19T17:53:59.068Z,3.50
2018-04-19T17:56:27.689Z,3.40
2018-04-19T17:58:55.610Z,3.40
2018-04-19T18:01:23.436Z,3.20
2018-04-19T18:03:51.322Z,3.40
2018-04-19T18:06:19.984Z,3.40
2018-04-19T18:08:47.785Z,3.20
2018-04-19T18:11:16.491Z,3.43
2018-04-19T18:13:44.347Z,3.17
2018-04-19T18:16:13.164Z,3.60
2018-04-19T18:18:41.034Z,3.57
2018-04-19T18:21:08.848Z,2.90
2018-04-19T18:23:37.564Z,3.50
2018-04-19T18:26:05.467Z,3.23
2018-04-19T18:28:33.335Z,3.17
2018-04-19T18:31:01.409Z,3.17
2018-04-19T18:33:29.244Z,3.67
2018-04-19T18:35:57.080Z,2.97
2018-04-19T18:38:24.935Z,3.27
2018-04-19T18:40:52.951Z,2.97
2018-04-19T18:43:20.858Z,2.93
2018-04-19T18:45:49.594Z,3.10
2018-04-19T18:48:18.549Z,3.10
2018-04-19T18:50:46.451Z,3.00
2018-04-19T18:53:14.362Z,3.30
2018-04-19T18:55:42.951Z,3.20
2018-04-19T18:58:11.693Z,3.00
2018-04-19T19:00:39.567Z,3.03
2018-04-19T19:03:07.462Z,2.67
2018-04-19T19:05:36.059Z,3.30
2018-04-19T19:08:04.692Z,3.10
2018-04-19T19:10:32.506Z,2.80
2018-04-19T19:13:00.436Z,2.80
2018-04-19T19:15:28.349Z,3.40
2018-04-19T19:17:56.186Z,3.00
2018-04-19T19:20:24.918Z,2.60
2018-04-19T19:22:52.749Z,3.00
2018-04-19T19:25:21.314Z,3.10
2018-04-19T19:27:49.280Z,3.00
2018-04-19T19:30:17.243Z,2.97
2018-04-19T19:32:45.088Z,2.87
2018-04-19T19:35:12.916Z,3.10
2018-04-19T19:37:40.740Z,2.90
2018-04-19T19:40:08.602Z,3.03
2018-04-19T19:42:37.216Z,3.17
2018-04-19T19:45:04.980Z,3.07
2018-04-19T19:47:32.828Z,2.83
2018-04-19T19:50:01.552Z,2.93
2018-04-19T19:52:29.405Z,2.97
2018-04-19T19:54:57.297Z,2.90
2018-04-19T19:57:25.132Z,2.90
2018-04-19T19:59:52.993Z,3.00
2018-04-19T20:02:20.779Z,2.87
2018-04-19T20:04:48.785Z,2.63
2018-04-19T20:07:16.617Z,2.73
2018-04-19T20:09:44.474Z,2.80
2018-04-19T20:12:12.438Z,2.80
2018-04-19T20:14:40.301Z,2.60
2018-04-19T20:17:08.122Z,2.90
2018-04-19T20:19:36.895Z,3.10
2018-04-19T20:22:04.755Z,2.80
2018-04-19T20:24:32.769Z,2.70
2018-04-19T20:27:00.582Z,2.80
2018-04-19T20:29:28.403Z,2.90
2018-04-19T20:31:56.381Z,3.07
2018-04-19T20:34:24.187Z,3.00
2018-04-19T20:36:52.109Z,2.63
2018-04-19T20:39:19.946Z,2.83
2018-04-19T20:41:47.875Z,2.60
2018-04-19T20:44:15.625Z,2.70
2018-04-19T20:46:43.540Z,2.70
2018-04-19T20:49:12.145Z,2.70
2018-04-19T20:51:39.971Z,2.70
2018-04-19T20:54:08.590Z,2.47
2018-04-19T20:56:36.459Z,2.53
2018-04-19T20:59:04.289Z,2.80
2018-04-19T21:01:32.924Z,2.77
2018-04-19T21:04:00.651Z,2.60
2018-04-19T21:06:28.508Z,3.10
2018-04-19T21:08:56.455Z,2.70
2018-04-19T21:11:25.074Z,3.00
2018-04-19T21:13:52.894Z,2.83
2018-04-19T21:16:20.736Z,2.83
2018-04-19T21:18:48.661Z,2.63
2018-04-19T21:21:16.631Z,2.70
2018-04-19T21:23:44.398Z,2.90
2018-04-19T21:26:12.168Z,2.60
2018-04-19T21:28:39.929Z,2.80
2018-04-19T21:31:07.742Z,2.93
2018-04-19T21:33:35.685Z,2.60
2018-04-19T21:36:03.550Z,2.67
2018-04-19T21:38:31.405Z,2.90
2018-04-19T21:40:59.385Z,2.60
2018-04-19T21:43:27.323Z,2.50
2018-04-19T21:45:55.156Z,2.57
2018-04-19T21:48:23.839Z,2.70
2018-04-19T21:50:52.581Z,2.67
2018-04-19T21:53:20.446Z,2.70
2018-04-19T21:55:48.414Z,2.80
2018-04-19T21:58:16.360Z,2.90
2018-04-19T22:00:44.388Z,2.73
2018-04-19T22:03:12.907Z,2.47
2018-04-19T22:05:40.711Z,2.70
2018-04-19T22:08:08.582Z,2.83
2018-04-19T22:10:36.530Z,2.80
2018-04-19T22:13:04.508Z,2.80
2018-04-19T22:15:32.381Z,2.60
2018-04-19T22:18:00.245Z,2.80
2018-04-19T22:20:28.248Z,2.50
2018-04-19T22:22:56.199Z,2.60
2018-04-19T22:25:24.791Z,2.70
2018-04-19T22:27:52.609Z,2.60
2018-04-19T22:30:20.568Z,2.57
2018-04-19T22:32:48.370Z,2.63
2018-04-19T22:35:16.961Z,2.80
2018-04-19T22:37:45.489Z,2.50
2018-04-19T22:40:13.319Z,2.80
2018-04-19T22:42:41.287Z,2.57
2018-04-19T22:45:09.129Z,2.73
2018-04-19T22:47:37.084Z,2.93
2018-04-19T22:50:04.832Z,2.60
2018-04-19T22:52:32.605Z,2.30
2018-04-19T22:55:01.163Z,2.57
2018-04-19T22:57:29.074Z,2.80
2018-04-19T22:59:57.070Z,2.80
2018-04-19T23:02:24.913Z,2.60
2018-04-19T23:04:52.884Z,3.03
2018-04-19T23:07:28.537Z,2.70
2018-04-19T23:09:56.290Z,2.73
2018-04-19T23:12:24.325Z,2.70
2018-04-19T23:14:52.207Z,2.73
2018-04-19T23:17:20.793Z,2.60
2018-04-19T23:19:48.509Z,2.53
2018-04-19T23:22:16.471Z,2.70
2018-04-19T23:24:44.436Z,2.90
2018-04-19T23:27:12.267Z,2.70
2018-04-19T23:29:40.127Z,2.50
2018-04-19T23:32:07.994Z,2.33
2018-04-19T23:34:36.706Z,2.73
2018-04-19T23:37:04.585Z,2.67
2018-04-19T23:39:32.430Z,2.70
2018-04-19T23:42:00.259Z,2.60
2018-04-19T23:44:29.000Z,2.60
2018-04-19T23:46:56.894Z,2.70
2018-04-19T23:49:24.696Z,3.03
2018-04-19T23:51:52.685Z,2.57
2018-04-19T23:54:20.574Z,2.60
2018-04-19T23:56:48.276Z,2.50
2018-04-19T23:59:16.968Z,2.60
